createdAt,value
2019-03-26T00:01:10.056Z,15.67
2019-03-26T00:04:05.309Z,15.63
2019-03-26T00:06:28.654Z,15.83
2019-03-26T00:09:01.262Z,15.27
2019-03-26T00:11:34.902Z,15.40
2019-03-26T00:14:07.617Z,15.13
2019-03-26T00:16:40.372Z,14.03
2019-03-26T00:19:13.056Z,15.87
2019-03-26T00:21:45.953Z,14.77
2019-03-26T00:24:18.603Z,15.17
2019-03-26T00:26:51.925Z,14.20
2019-03-26T00:29:24.563Z,13.40
2019-03-26T00:31:57.400Z,14.17
2019-03-26T00:34:30.034Z,13.07
2019-03-26T00:37:02.942Z,13.23
2019-03-26T00:39:35.546Z,14.13
2019-03-26T00:42:08.227Z,14.43
2019-03-26T00:44:40.852Z,14.73
2019-03-26T00:47:13.414Z,13.97
2019-03-26T00:49:46.030Z,16.67
2019-03-26T00:52:18.818Z,14.70
2019-03-26T00:54:51.418Z,17.07
2019-03-26T00:57:24.280Z,18.00
2019-03-26T00:59:56.876Z,16.80
2019-03-26T01:02:29.537Z,16.80
2019-03-26T01:05:02.146Z,14.80
2019-03-26T01:07:35.016Z,14.80
2019-03-26T01:10:09.653Z,14.53
2019-03-26T01:12:42.929Z,14.67
2019-03-26T01:15:15.567Z,14.57
2019-03-26T01:17:48.239Z,15.70
2019-03-26T01:20:20.798Z,15.20
2019-03-26T01:22:53.749Z,15.67
2019-03-26T01:25:26.445Z,15.63
2019-03-26T01:27:59.515Z,16.40
2019-03-26T01:30:32.088Z,16.20
2019-03-26T01:33:04.769Z,17.33
2019-03-26T01:35:37.353Z,16.40
2019-03-26T01:38:10.108Z,16.33
2019-03-26T01:40:42.786Z,17.63
2019-03-26T01:43:15.533Z,16.40
2019-03-26T01:45:48.125Z,18.17
2019-03-26T01:48:20.969Z,15.77
2019-03-26T01:50:53.505Z,15.40
2019-03-26T01:53:26.322Z,15.83
2019-03-26T01:55:58.889Z,13.77
2019-03-26T01:58:31.788Z,14.60
2019-03-26T02:01:04.356Z,14.63
2019-03-26T02:03:36.972Z,13.00
2019-03-26T02:06:09.518Z,12.10
2019-03-26T02:08:42.186Z,12.93
2019-03-26T02:11:14.773Z,11.43
2019-03-26T02:13:47.518Z,11.07
2019-03-26T02:16:20.089Z,10.13
2019-03-26T02:18:52.653Z,10.00
2019-03-26T02:21:25.363Z,9.87
2019-03-26T02:23:58.077Z,10.67
2019-03-26T02:26:30.762Z,9.70
2019-03-26T02:29:03.544Z,8.57
2019-03-26T02:31:36.166Z,9.30
2019-03-26T02:34:08.908Z,8.07
2019-03-26T02:36:41.509Z,8.80
2019-03-26T02:39:14.185Z,9.30
2019-03-26T02:41:46.960Z,10.50
2019-03-26T02:44:19.932Z,9.23
2019-03-26T02:46:52.543Z,8.47
2019-03-26T02:49:25.261Z,8.80
2019-03-26T02:51:57.987Z,9.87
2019-03-26T02:54:30.594Z,8.93
2019-03-26T02:57:03.156Z,9.20
2019-03-26T02:59:36.222Z,9.37
2019-03-26T03:02:08.779Z,10.53
2019-03-26T03:04:41.403Z,9.87
2019-03-26T03:07:14.035Z,10.07
2019-03-26T03:09:46.658Z,10.63
2019-03-26T03:12:19.323Z,10.20
2019-03-26T03:14:52.357Z,10.30
2019-03-26T03:17:24.924Z,9.17
2019-03-26T03:19:57.787Z,9.73
2019-03-26T03:22:30.622Z,10.37
2019-03-26T03:25:03.435Z,9.63
2019-03-26T03:27:36.031Z,10.03
2019-03-26T03:30:13.106Z,10.73
2019-03-26T03:32:45.670Z,10.80
2019-03-26T03:35:18.679Z,11.30
2019-03-26T03:37:51.235Z,22.33
2019-03-26T03:40:24.033Z,26.10
2019-03-26T03:42:56.621Z,28.43
2019-03-26T03:45:33.885Z,19.27
2019-03-26T03:48:06.818Z,17.77
2019-03-26T03:50:40.956Z,16.70
2019-03-26T03:53:18.535Z,17.33
2019-03-26T03:55:53.671Z,23.27
2019-03-26T03:58:29.442Z,15.40
2019-03-26T04:01:02.473Z,18.37
2019-03-26T04:03:35.065Z,18.73
2019-03-26T04:06:09.938Z,14.47
2019-03-26T04:08:42.022Z,16.27
2019-03-26T04:11:15.733Z,14.40
2019-03-26T04:13:48.332Z,14.80
2019-03-26T04:16:21.300Z,14.67
2019-03-26T04:18:53.939Z,15.37
2019-03-26T04:21:26.565Z,15.47
2019-03-26T04:23:59.133Z,14.90
2019-03-26T04:26:31.762Z,15.30
2019-03-26T04:29:04.332Z,15.47
2019-03-26T04:31:37.209Z,14.97
2019-03-26T04:34:09.777Z,13.97
2019-03-26T04:36:42.659Z,14.77
2019-03-26T04:39:15.212Z,12.20
2019-03-26T04:41:47.814Z,14.53
2019-03-26T04:44:20.389Z,15.80
2019-03-26T04:46:53.267Z,15.77
2019-03-26T04:49:25.864Z,10.37
2019-03-26T04:51:58.481Z,12.47
2019-03-26T04:54:31.051Z,14.90
2019-03-26T04:57:03.739Z,14.57
2019-03-26T04:59:36.388Z,13.70
2019-03-26T05:02:09.462Z,14.23
2019-03-26T05:04:42.065Z,13.10
2019-03-26T05:07:14.707Z,15.10
2019-03-26T05:09:47.324Z,14.53
2019-03-26T05:12:19.992Z,11.57
2019-03-26T05:14:52.579Z,16.73
2019-03-26T05:17:25.415Z,15.87
2019-03-26T05:19:58.069Z,15.07
2019-03-26T05:22:30.715Z,17.43
2019-03-26T05:25:03.277Z,17.70
2019-03-26T05:27:45.384Z,19.47
2019-03-26T05:30:10.983Z,19.37
2019-03-26T05:32:44.193Z,12.23
2019-03-26T05:35:16.955Z,18.70
2019-03-26T05:37:49.846Z,14.43
2019-03-26T05:40:22.427Z,15.70
2019-03-26T05:42:55.162Z,16.50
2019-03-26T05:45:27.713Z,14.90
2019-03-26T05:48:00.601Z,16.80
2019-03-26T05:50:33.187Z,15.33
2019-03-26T05:53:05.771Z,15.23
2019-03-26T05:55:38.347Z,21.57
2019-03-26T05:58:10.937Z,14.57
2019-03-26T06:00:43.551Z,19.50
2019-03-26T06:03:16.353Z,18.63
2019-03-26T06:05:48.926Z,18.37
2019-03-26T06:08:21.643Z,16.80
2019-03-26T06:10:54.208Z,17.37
2019-03-26T06:13:26.893Z,14.33
2019-03-26T06:15:59.461Z,14.60
2019-03-26T06:18:32.279Z,18.10
2019-03-26T06:21:05.785Z,14.97
2019-03-26T06:23:38.618Z,17.27
2019-03-26T06:26:11.165Z,18.53
2019-03-26T06:28:44.064Z,14.20
2019-03-26T06:31:16.622Z,14.83
2019-03-26T06:33:49.850Z,14.23
2019-03-26T06:36:22.412Z,16.17
2019-03-26T06:38:55.229Z,15.70
2019-03-26T06:41:27.804Z,16.47
2019-03-26T06:44:00.421Z,11.60
2019-03-26T06:46:32.997Z,13.97
2019-03-26T06:49:06.242Z,11.33
2019-03-26T06:51:38.813Z,11.40
2019-03-26T06:54:11.760Z,16.10
2019-03-26T06:56:44.304Z,15.40
2019-03-26T06:59:16.964Z,9.90
2019-03-26T07:01:50.226Z,11.50
2019-03-26T07:04:24.318Z,13.80
2019-03-26T07:06:57.907Z,11.87
2019-03-26T07:09:31.067Z,12.93
2019-03-26T07:12:03.681Z,11.40
2019-03-26T07:14:36.437Z,10.30
2019-03-26T07:17:09.050Z,11.73
2019-03-26T07:19:42.515Z,12.33
2019-03-26T07:22:15.128Z,11.60
2019-03-26T07:24:48.036Z,12.43
2019-03-26T07:27:20.659Z,10.77
2019-03-26T07:29:53.302Z,14.13
2019-03-26T07:32:25.890Z,9.43
2019-03-26T07:34:58.805Z,9.93
2019-03-26T07:37:44.152Z,12.60
2019-03-26T07:40:07.695Z,9.50
2019-03-26T07:42:40.289Z,11.60
2019-03-26T07:45:13.920Z,11.50
2019-03-26T07:47:48.245Z,8.23
2019-03-26T07:50:21.119Z,12.13
2019-03-26T07:52:53.676Z,8.97
2019-03-26T07:55:26.478Z,11.00
2019-03-26T07:57:59.063Z,9.37
2019-03-26T08:00:37.168Z,11.30
2019-03-26T08:03:10.024Z,11.87
2019-03-26T08:05:42.769Z,8.50
2019-03-26T08:08:15.379Z,7.70
2019-03-26T08:10:48.305Z,11.43
2019-03-26T08:13:20.936Z,7.43
2019-03-26T08:15:53.970Z,12.73
2019-03-26T08:18:26.641Z,6.67
2019-03-26T08:20:59.548Z,10.37
2019-03-26T08:36:40.780Z,8.30
2019-03-26T08:39:13.647Z,7.67
2019-03-26T08:41:46.478Z,7.73
2019-03-26T08:44:19.122Z,10.03
2019-03-26T08:46:51.934Z,7.53
2019-03-26T08:49:30.467Z,6.73
2019-03-26T08:51:59.166Z,9.80
2019-03-26T08:54:31.800Z,6.87
2019-03-26T08:57:04.719Z,9.23
2019-03-26T08:59:37.582Z,8.80
2019-03-26T09:02:11.631Z,10.70
2019-03-26T09:04:44.311Z,6.97
2019-03-26T09:07:17.181Z,7.13
2019-03-26T09:09:49.984Z,8.60
2019-03-26T09:12:22.945Z,10.50
2019-03-26T09:14:56.121Z,9.90
2019-03-26T09:17:29.031Z,10.60
2019-03-26T09:20:01.688Z,12.73
2019-03-26T09:22:34.900Z,10.87
2019-03-26T09:27:48.761Z,11.57
2019-03-26T09:30:21.516Z,13.73
2019-03-26T09:32:54.346Z,10.90
2019-03-26T09:35:26.957Z,9.77
2019-03-26T09:37:59.601Z,12.33
2019-03-26T09:40:32.196Z,10.27
2019-03-26T09:43:05.039Z,10.23
2019-03-26T09:45:37.928Z,11.20
2019-03-26T09:48:10.713Z,11.67
2019-03-26T09:50:44.547Z,12.17
2019-03-26T09:53:17.744Z,14.13
2019-03-26T09:55:50.320Z,14.03
2019-03-26T09:58:23.031Z,12.73
2019-03-26T10:00:55.673Z,13.57
2019-03-26T10:03:28.535Z,14.40
2019-03-26T10:06:01.109Z,14.67
2019-03-26T10:08:34.023Z,13.20
2019-03-26T10:11:06.630Z,14.30
2019-03-26T10:13:39.682Z,16.13
2019-03-26T10:16:12.485Z,11.47
2019-03-26T10:18:45.142Z,13.27
2019-03-26T10:21:17.805Z,13.17
2019-03-26T10:23:50.718Z,10.07
2019-03-26T10:26:23.331Z,9.90
2019-03-26T10:28:56.173Z,12.93
2019-03-26T10:31:29.128Z,13.03
2019-03-26T10:34:01.751Z,11.53
2019-03-26T10:36:34.782Z,14.73
2019-03-26T10:39:09.595Z,12.23
2019-03-26T10:41:42.164Z,14.33
2019-03-26T10:44:16.084Z,11.60
2019-03-26T10:46:49.196Z,11.27
2019-03-26T10:49:21.911Z,9.20
2019-03-26T10:51:54.554Z,12.93
2019-03-26T10:54:27.382Z,12.20
2019-03-26T10:56:59.985Z,13.50
2019-03-26T10:59:32.680Z,11.40
2019-03-26T11:02:05.668Z,11.90
2019-03-26T11:04:38.614Z,10.03
2019-03-26T11:07:11.382Z,9.17
2019-03-26T11:09:45.099Z,10.67
2019-03-26T11:12:17.672Z,8.77
2019-03-26T11:14:50.369Z,9.63
2019-03-26T11:17:24.231Z,9.97
2019-03-26T11:19:56.923Z,11.67
2019-03-26T11:22:29.505Z,9.17
2019-03-26T11:25:02.247Z,9.63
2019-03-26T11:27:34.875Z,10.70
2019-03-26T11:30:09.095Z,8.67
2019-03-26T11:32:42.030Z,12.20
2019-03-26T11:35:14.899Z,10.83
2019-03-26T11:37:47.569Z,7.83
2019-03-26T11:40:20.592Z,8.40
2019-03-26T11:42:53.255Z,10.03
2019-03-26T11:45:26.005Z,9.87
2019-03-26T11:47:59.022Z,10.43
2019-03-26T11:50:31.671Z,7.70
2019-03-26T11:53:04.482Z,11.03
2019-03-26T11:55:37.169Z,10.60
2019-03-26T11:58:09.769Z,10.57
2019-03-26T12:00:42.705Z,10.17
2019-03-26T12:03:15.639Z,9.33
2019-03-26T12:05:48.253Z,7.57
2019-03-26T12:08:20.893Z,10.63
2019-03-26T12:10:53.638Z,11.10
2019-03-26T12:13:26.248Z,10.63
2019-03-26T12:15:58.951Z,8.50
2019-03-26T12:18:31.538Z,8.53
2019-03-26T12:21:04.453Z,7.73
2019-03-26T12:23:37.057Z,7.90
2019-03-26T12:26:11.141Z,8.87
2019-03-26T12:28:43.724Z,7.97
2019-03-26T12:31:16.343Z,8.83
2019-03-26T12:33:49.078Z,10.13
2019-03-26T12:36:21.891Z,10.53
2019-03-26T12:38:54.481Z,8.50
2019-03-26T12:41:27.137Z,9.97
2019-03-26T12:43:59.727Z,8.87
2019-03-26T12:46:32.724Z,8.47
2019-03-26T12:49:05.555Z,8.87
2019-03-26T12:51:39.455Z,8.57
2019-03-26T12:54:12.203Z,8.73
2019-03-26T12:56:44.945Z,8.43
2019-03-26T12:59:17.594Z,8.03
2019-03-26T13:01:50.510Z,7.73
2019-03-26T13:04:23.479Z,8.00
2019-03-26T13:06:56.278Z,8.37
2019-03-26T13:09:28.863Z,7.23
2019-03-26T13:12:01.747Z,7.90
2019-03-26T13:14:34.763Z,6.07
2019-03-26T13:17:07.522Z,5.90
2019-03-26T13:19:40.501Z,7.03
2019-03-26T13:22:13.389Z,5.20
2019-03-26T13:24:45.993Z,5.43
2019-03-26T13:27:18.744Z,5.77
2019-03-26T13:29:51.421Z,5.07
2019-03-26T13:32:24.341Z,5.13
2019-03-26T13:34:57.066Z,5.73
2019-03-26T13:37:29.983Z,6.13
2019-03-26T13:40:02.573Z,5.97
2019-03-26T13:42:35.455Z,6.67
2019-03-26T13:45:09.274Z,7.00
2019-03-26T13:47:42.144Z,7.07
2019-03-26T13:50:15.795Z,6.40
2019-03-26T13:52:48.484Z,7.43
2019-03-26T13:55:21.225Z,10.23
2019-03-26T13:57:55.032Z,8.60
2019-03-26T14:00:37.900Z,7.73
2019-03-26T14:03:10.919Z,7.80
2019-03-26T14:05:43.495Z,6.87
2019-03-26T14:08:16.381Z,6.70
2019-03-26T14:10:49.015Z,10.53
2019-03-26T14:13:21.659Z,9.03
2019-03-26T14:15:54.265Z,10.47
2019-03-26T14:18:27.102Z,9.63
2019-03-26T14:21:00.135Z,9.57
2019-03-26T14:23:32.888Z,9.30
2019-03-26T14:26:07.172Z,10.30
2019-03-26T14:28:39.941Z,8.43
2019-03-26T14:31:12.603Z,9.37
2019-03-26T14:33:45.483Z,8.30
2019-03-26T14:36:18.283Z,8.70
2019-03-26T14:38:50.961Z,8.67
2019-03-26T14:41:23.617Z,8.50
2019-03-26T14:43:56.382Z,7.70
2019-03-26T14:46:28.995Z,9.60
2019-03-26T14:49:01.661Z,7.37
2019-03-26T14:51:34.671Z,9.67
2019-03-26T14:54:07.322Z,9.03
2019-03-26T14:56:39.974Z,9.43
2019-03-26T14:59:12.774Z,10.13
2019-03-26T15:01:45.448Z,10.37
2019-03-26T15:04:18.440Z,10.47
2019-03-26T15:06:51.157Z,13.80
2019-03-26T15:09:23.878Z,4.53
2019-03-26T15:11:56.615Z,2.13
2019-03-26T15:14:29.211Z,2.10
2019-03-26T15:17:01.878Z,2.00
2019-03-26T15:19:34.449Z,1.83
2019-03-26T15:22:07.578Z,1.50
2019-03-26T15:24:40.592Z,1.23
2019-03-26T15:27:13.191Z,1.23
2019-03-26T15:29:47.283Z,1.50
2019-03-26T15:32:19.885Z,1.93
2019-03-26T15:34:52.736Z,1.50
2019-03-26T15:37:25.804Z,2.00
2019-03-26T15:39:58.841Z,1.50
2019-03-26T15:42:31.527Z,2.30
2019-03-26T15:45:04.510Z,2.53
2019-03-26T15:47:37.144Z,2.63
2019-03-26T15:50:10.891Z,2.40
2019-03-26T15:52:43.853Z,2.07
2019-03-26T15:55:16.767Z,2.40
2019-03-26T15:57:49.882Z,2.17
2019-03-26T16:00:27.357Z,2.73
2019-03-26T16:02:59.952Z,3.30
2019-03-26T16:05:32.806Z,3.00
2019-03-26T16:08:05.673Z,3.90
2019-03-26T16:10:38.668Z,4.77
2019-03-26T16:13:11.234Z,4.50
2019-03-26T16:15:45.205Z,3.27
2019-03-26T16:18:18.102Z,3.67
2019-03-26T16:20:50.787Z,4.17
2019-03-26T16:23:23.667Z,3.30
2019-03-26T16:25:56.544Z,4.70
2019-03-26T16:28:29.190Z,5.27
2019-03-26T16:31:01.963Z,5.63
2019-03-26T16:33:35.773Z,4.60
2019-03-26T16:36:08.573Z,4.60
2019-03-26T16:38:41.227Z,5.80
2019-03-26T16:41:14.107Z,6.60
2019-03-26T16:43:46.683Z,7.60
2019-03-26T16:46:19.393Z,7.60
2019-03-26T16:48:52.010Z,6.33
2019-03-26T16:51:24.758Z,6.77
2019-03-26T16:53:57.677Z,5.30
2019-03-26T16:56:30.514Z,5.67
2019-03-26T16:59:03.472Z,3.23
2019-03-26T17:01:36.469Z,4.80
2019-03-26T17:04:09.066Z,12.77
2019-03-26T17:06:42.073Z,10.10
2019-03-26T17:09:14.734Z,7.93
2019-03-26T17:11:47.609Z,6.57
2019-03-26T17:14:20.205Z,8.73
2019-03-26T17:16:53.193Z,7.70
2019-03-26T17:19:25.819Z,9.03
2019-03-26T17:21:58.743Z,8.63
2019-03-26T17:24:31.342Z,7.83
2019-03-26T17:27:04.370Z,9.20
2019-03-26T17:29:36.966Z,4.57
2019-03-26T17:32:09.779Z,8.33
2019-03-26T17:34:42.362Z,7.30
2019-03-26T17:37:15.263Z,7.87
2019-03-26T17:39:47.958Z,7.40
2019-03-26T17:42:20.821Z,8.20
2019-03-26T17:44:53.406Z,7.07
2019-03-26T17:47:26.110Z,8.23
2019-03-26T17:49:59.875Z,7.47
2019-03-26T17:52:32.851Z,7.83
2019-03-26T17:55:05.936Z,8.00
2019-03-26T17:57:38.611Z,8.07
2019-03-26T18:00:14.985Z,8.70
2019-03-26T18:02:47.996Z,6.63
2019-03-26T18:05:29.208Z,7.27
2019-03-26T18:08:01.859Z,7.80
2019-03-26T18:10:34.773Z,8.37
2019-03-26T18:13:07.451Z,8.10
2019-03-26T18:15:40.069Z,7.80
2019-03-26T18:18:12.971Z,7.63
2019-03-26T18:20:45.699Z,7.37
2019-03-26T18:23:18.470Z,8.80
2019-03-26T18:25:51.386Z,8.80
2019-03-26T18:28:24.320Z,11.03
2019-03-26T18:30:57.080Z,12.47
2019-03-26T18:33:29.987Z,12.43
2019-03-26T18:36:02.618Z,12.10
2019-03-26T18:38:35.274Z,13.60
2019-03-26T18:41:08.240Z,16.83
2019-03-26T18:43:41.099Z,20.70
2019-03-26T18:46:13.798Z,23.73
2019-03-26T18:48:46.908Z,15.37
2019-03-26T18:51:19.737Z,11.27
2019-03-26T18:53:52.521Z,12.90
2019-03-26T18:56:25.115Z,10.77
2019-03-26T18:58:57.997Z,11.50
2019-03-26T19:01:30.766Z,10.47
2019-03-26T19:04:03.729Z,9.33
2019-03-26T19:06:37.649Z,9.43
2019-03-26T19:09:10.906Z,7.60
2019-03-26T19:11:43.663Z,8.63
2019-03-26T19:14:16.383Z,5.03
2019-03-26T19:16:49.078Z,7.53
2019-03-26T19:19:22.146Z,7.37
2019-03-26T19:21:54.852Z,6.57
2019-03-26T19:24:27.679Z,8.10
2019-03-26T19:27:04.082Z,5.93
2019-03-26T19:29:35.437Z,7.23
2019-03-26T19:32:08.247Z,6.30
2019-03-26T19:34:41.079Z,5.03
2019-03-26T19:37:13.677Z,5.03
2019-03-26T19:39:46.765Z,5.07
2019-03-26T19:42:19.722Z,4.60
2019-03-26T19:44:52.521Z,5.83
2019-03-26T19:47:25.649Z,5.53
2019-03-26T19:49:58.489Z,4.83
2019-03-26T19:52:31.245Z,5.70
2019-03-26T19:55:04.155Z,4.50
2019-03-26T19:57:37.166Z,4.83
2019-03-26T20:00:13.349Z,4.07
2019-03-26T20:02:46.183Z,4.00
2019-03-26T20:05:21.446Z,4.77
2019-03-26T20:07:54.385Z,4.20
2019-03-26T20:10:27.127Z,4.60
2019-03-26T20:13:00.196Z,4.13
2019-03-26T20:15:33.058Z,3.83
2019-03-26T20:18:05.737Z,4.00
2019-03-26T20:20:38.745Z,3.10
2019-03-26T20:23:11.382Z,4.50
2019-03-26T20:25:44.211Z,4.60
2019-03-26T20:28:17.448Z,3.50
2019-03-26T20:30:49.982Z,3.90
2019-03-26T20:33:22.676Z,4.20
2019-03-26T20:35:55.918Z,3.47
2019-03-26T20:38:28.864Z,3.77
2019-03-26T20:41:01.799Z,3.90
2019-03-26T20:43:37.544Z,3.80
2019-03-26T20:46:09.431Z,3.97
2019-03-26T20:48:42.165Z,3.90
2019-03-26T20:51:15.205Z,3.70
2019-03-26T20:53:47.959Z,3.87
2019-03-26T20:56:20.724Z,3.37
2019-03-26T20:58:53.810Z,3.17
2019-03-26T21:01:27.072Z,3.30
2019-03-26T21:03:59.856Z,4.03
2019-03-26T21:06:34.140Z,3.33
2019-03-26T21:09:09.120Z,3.07
2019-03-26T21:11:42.802Z,3.63
2019-03-26T21:14:15.615Z,3.20
2019-03-26T21:16:48.560Z,3.87
2019-03-26T21:19:21.229Z,3.53
2019-03-26T21:21:53.901Z,3.43
2019-03-26T21:24:26.619Z,3.30
2019-03-26T21:26:59.409Z,4.10
2019-03-26T21:29:32.426Z,3.70
2019-03-26T21:32:05.369Z,3.33
2019-03-26T21:34:38.084Z,3.40
2019-03-26T21:37:11.048Z,3.10
2019-03-26T21:39:43.692Z,3.53
2019-03-26T21:42:16.355Z,2.80
2019-03-26T21:44:49.129Z,3.30
2019-03-26T21:47:22.069Z,3.47
2019-03-26T21:49:54.713Z,4.00
2019-03-26T21:52:27.612Z,4.40
2019-03-26T21:55:00.360Z,3.73
2019-03-26T21:57:33.046Z,3.80
2019-03-26T22:00:07.846Z,3.30
2019-03-26T22:02:42.347Z,3.70
2019-03-26T22:05:15.035Z,3.20
2019-03-26T22:07:47.981Z,3.20
2019-03-26T22:10:20.776Z,3.13
2019-03-26T22:12:53.517Z,2.77
2019-03-26T22:15:26.447Z,2.80
2019-03-26T22:18:00.564Z,2.63
2019-03-26T22:20:33.308Z,3.37
2019-03-26T22:23:06.433Z,2.77
2019-03-26T22:25:39.447Z,2.67
2019-03-26T22:28:12.227Z,2.57
2019-03-26T22:30:45.318Z,3.10
2019-03-26T22:33:18.194Z,3.17
2019-03-26T22:35:50.810Z,3.63
2019-03-26T22:38:23.756Z,3.10
2019-03-26T22:40:56.317Z,3.40
2019-03-26T22:43:29.116Z,3.33
2019-03-26T22:46:01.993Z,2.90
2019-03-26T22:48:34.782Z,4.23
2019-03-26T22:51:07.404Z,3.30
2019-03-26T22:53:41.482Z,2.97
2019-03-26T22:56:14.073Z,3.13
2019-03-26T22:58:47.043Z,3.10
2019-03-26T23:01:20.315Z,3.30
2019-03-26T23:03:53.235Z,3.30
2019-03-26T23:06:26.368Z,2.90
2019-03-26T23:08:59.215Z,3.03
2019-03-26T23:11:33.174Z,3.20
2019-03-26T23:14:07.443Z,4.07
2019-03-26T23:16:40.675Z,3.63
2019-03-26T23:19:13.383Z,3.43
2019-03-26T23:21:45.989Z,3.17
2019-03-26T23:24:19.069Z,3.67
2019-03-26T23:26:52.848Z,3.70
2019-03-26T23:29:25.772Z,3.47
2019-03-26T23:31:58.518Z,3.83
2019-03-26T23:34:31.533Z,3.90
2019-03-26T23:37:04.137Z,3.27
2019-03-26T23:39:36.891Z,3.60
2019-03-26T23:42:09.572Z,3.70
2019-03-26T23:44:42.223Z,3.90
2019-03-26T23:47:15.001Z,4.10
2019-03-26T23:49:47.703Z,3.60
2019-03-26T23:52:20.361Z,4.00
2019-03-26T23:54:53.164Z,4.10
2019-03-26T23:57:25.726Z,3.70
2019-03-26T23:59:58.855Z,3.70
